Time;durP1;ratioP1;P1;durP2;ratioP2;P2;SDS_P1;SDS_P2;PMS_P1;PMS_P2;Temp;Humidity;BMP_temperature;BMP_pressure;BME280_temperature;BME280_humidity;BME280_pressure;Samples;Min_cycle;Max_cycle;Signal;HPM_P1;HPM_P2
2021/06/05 00:01:24;;;;;;;0.60;0.40;;;19.70;99.90;;;;;;5114312;28;20459;-73
2021/06/05 00:03:52;;;;;;;0.47;0.30;;;19.70;99.90;;;;;;5114635;28;20515;-73
2021/06/05 00:06:21;;;;;;;0.50;0.30;;;19.60;99.90;;;;;;5113974;28;20515;-74
2021/06/05 00:08:48;;;;;;;0.80;0.40;;;19.60;99.90;;;;;;5114522;28;20435;-73
2021/06/05 00:11:17;;;;;;;1.80;0.30;;;19.60;99.90;;;;;;5117329;28;20871;-73
2021/06/05 00:13:46;;;;;;;0.50;0.40;;;19.50;99.90;;;;;;5117628;28;20665;-73
2021/06/05 00:16:16;;;;;;;0.50;0.30;;;19.50;99.90;;;;;;5117850;28;20504;-73
2021/06/05 00:18:42;;;;;;;0.70;0.40;;;19.30;99.90;;;;;;5117491;28;20424;-73
2021/06/05 00:21:09;;;;;;;1.05;0.30;;;19.20;99.90;;;;;;5117144;28;20807;-72
2021/06/05 00:23:38;;;;;;;0.60;0.30;;;19.20;99.90;;;;;;5117329;28;20522;-72
2021/06/05 00:26:05;;;;;;;1.20;0.40;;;19.10;99.90;;;;;;5116839;28;20517;-72
2021/06/05 00:28:32;;;;;;;0.60;0.30;;;19.10;99.90;;;;;;5117203;28;20902;-73
2021/06/05 00:30:59;;;;;;;0.50;0.30;;;19.10;99.90;;;;;;5117203;28;20700;-72
2021/06/05 00:33:26;;;;;;;0.68;0.38;;;19.00;99.90;;;;;;5115871;28;20520;-73
2021/06/05 00:35:53;;;;;;;0.50;0.40;;;19.00;99.90;;;;;;5117695;28;20494;-73
2021/06/05 00:38:21;;;;;;;0.50;0.30;;;19.00;99.90;;;;;;5118201;28;20835;-72
2021/06/05 00:40:51;;;;;;;0.50;0.30;;;18.90;99.90;;;;;;5118450;28;20420;-73
2021/06/05 00:43:22;;;;;;;0.50;0.40;;;18.90;99.90;;;;;;5118702;28;20808;-72
2021/06/05 00:45:49;;;;;;;0.50;0.40;;;18.90;99.90;;;;;;5117887;28;20426;-73
2021/06/05 00:48:17;;;;;;;0.80;0.30;;;19.00;99.90;;;;;;5118320;28;20500;-73
2021/06/05 00:50:44;;;;;;;0.60;0.30;;;18.80;99.90;;;;;;5118753;28;20509;-72
2021/06/05 00:53:13;;;;;;;1.70;0.40;;;18.70;99.90;;;;;;5118457;28;20432;-72
2021/06/05 00:55:48;;;;;;;0.70;0.35;;;18.50;99.90;;;;;;5118421;28;20447;-73
2021/06/05 00:58:16;;;;;;;0.70;0.40;;;18.50;99.90;;;;;;5118000;28;20494;-73
2021/06/05 01:00:46;;;;;;;0.50;0.30;;;18.30;99.90;;;;;;5117726;28;20465;-73
2021/06/05 01:03:13;;;;;;;0.75;0.30;;;18.20;99.90;;;;;;5117430;28;20505;-73
2021/06/05 01:05:40;;;;;;;0.60;0.30;;;18.10;99.90;;;;;;5116610;28;20511;-73
2021/06/05 01:08:16;;;;;;;1.13;0.35;;;18.00;99.90;;;;;;5115788;28;20854;-72
2021/06/05 01:10:44;;;;;;;0.60;0.40;;;17.90;99.90;;;;;;5114774;28;20782;-72
2021/06/05 01:13:19;;;;;;;0.70;0.40;;;17.90;99.90;;;;;;5115196;28;20444;-73
2021/06/05 01:15:51;;;;;;;0.50;0.30;;;17.90;99.90;;;;;;5114923;28;20467;-72
2021/06/05 01:18:27;;;;;;;1.10;0.40;;;17.90;99.90;;;;;;5114820;28;20415;-71
2021/06/05 01:21:08;;;;;;;1.40;0.30;;;17.90;99.90;;;;;;5114499;28;20515;-72
2021/06/05 01:23:41;;;;;;;0.50;0.30;;;18.00;99.90;;;;;;5116360;28;20428;-72
2021/06/05 01:26:18;;;;;;;0.50;0.30;;;17.90;99.90;;;;;;5117230;28;20432;-71
2021/06/05 01:28:54;;;;;;;0.63;0.40;;;18.00;99.90;;;;;;5115857;28;20792;-71
2021/06/05 01:31:24;;;;;;;0.73;0.30;;;17.90;99.90;;;;;;5115996;28;20427;-71
2021/06/05 01:33:51;;;;;;;0.90;0.30;;;17.90;99.90;;;;;;5116304;28;20835;-71
2021/06/05 01:36:19;;;;;;;0.70;0.40;;;17.90;99.90;;;;;;5115718;28;20495;-71
2021/06/05 01:38:48;;;;;;;0.70;0.30;;;17.80;99.90;;;;;;5115190;28;20457;-71
2021/06/05 01:41:18;;;;;;;0.50;0.30;;;17.80;99.90;;;;;;5115673;28;20420;-71
2021/06/05 01:43:47;;;;;;;0.50;0.30;;;17.70;99.90;;;;;;5116917;28;20447;-72
2021/06/05 01:46:16;;;;;;;1.00;0.30;;;17.70;99.90;;;;;;5115513;28;20514;-73
2021/06/05 01:48:42;;;;;;;0.80;0.40;;;17.80;99.90;;;;;;5115888;28;20514;-73
2021/06/05 01:51:13;;;;;;;0.55;0.30;;;17.80;99.90;;;;;;5116443;28;20489;-72
2021/06/05 01:53:45;;;;;;;0.50;0.30;;;17.80;99.90;;;;;;5116533;28;20456;-72
2021/06/05 01:56:17;;;;;;;0.75;0.30;;;17.90;99.90;;;;;;5116291;28;20850;-72
2021/06/05 01:58:45;;;;;;;0.80;0.30;;;17.90;99.90;;;;;;5115747;28;20867;-72
2021/06/05 02:01:13;;;;;;;1.20;0.30;;;17.90;99.90;;;;;;5116712;28;20502;-73
2021/06/05 02:03:40;;;;;;;0.50;0.30;;;17.90;99.90;;;;;;5116914;28;20432;-72
2021/06/05 02:06:07;;;;;;;0.40;0.20;;;18.00;99.90;;;;;;5116979;28;20464;-73
2021/06/05 02:08:33;;;;;;;0.60;0.30;;;18.00;99.90;;;;;;5117269;28;20528;-72
2021/06/05 02:11:04;;;;;;;0.40;0.20;;;18.00;99.90;;;;;;5117391;28;20502;-73
2021/06/05 02:13:37;;;;;;;0.57;0.30;;;18.10;99.90;;;;;;5117116;28;20478;-73
2021/06/05 02:16:09;;;;;;;0.50;0.30;;;18.20;99.90;;;;;;5116782;28;20451;-73
2021/06/05 02:18:39;;;;;;;0.50;0.30;;;18.20;99.90;;;;;;5117477;28;20444;-72
2021/06/05 02:21:10;;;;;;;0.45;0.30;;;18.30;99.90;;;;;;5117398;28;20492;-73
2021/06/05 02:23:41;;;;;;;0.50;0.30;;;18.40;99.90;;;;;;5117358;28;20511;-73
2021/06/05 02:26:09;;;;;;;0.60;0.30;;;18.40;99.90;;;;;;5116164;28;20511;-72
2021/06/05 02:28:39;;;;;;;0.50;0.30;;;18.40;99.90;;;;;;5116812;28;20424;-73
2021/06/05 02:31:07;;;;;;;0.82;0.30;;;18.40;99.90;;;;;;5116967;28;20444;-72
2021/06/05 02:33:34;;;;;;;0.60;0.30;;;18.40;99.90;;;;;;5115415;28;20517;-73
2021/06/05 02:36:02;;;;;;;0.40;0.30;;;18.40;99.90;;;;;;5116745;28;20473;-73
2021/06/05 02:38:30;;;;;;;0.50;0.30;;;18.30;99.90;;;;;;5116005;28;20911;-73
2021/06/05 02:40:57;;;;;;;0.55;0.30;;;18.30;99.90;;;;;;5116494;28;20713;-73
2021/06/05 02:43:27;;;;;;;0.40;0.30;;;18.30;99.90;;;;;;5116196;28;20428;-73
2021/06/05 02:45:59;;;;;;;0.60;0.30;;;18.40;99.90;;;;;;5116474;28;20513;-73
2021/06/05 02:48:38;;;;;;;0.40;0.20;;;18.30;99.90;;;;;;5116078;28;20474;-71
2021/06/05 02:51:05;;;;;;;0.60;0.30;;;18.40;99.90;;;;;;5115182;28;20513;-72
2021/06/05 02:53:31;;;;;;;0.50;0.30;;;18.30;99.90;;;;;;5115629;28;20506;-72
2021/06/05 02:55:57;;;;;;;0.50;0.30;;;18.30;99.90;;;;;;5115636;28;20900;-73
2021/06/05 02:58:24;;;;;;;0.50;0.30;;;18.30;99.90;;;;;;5116047;28;20454;-73
2021/06/05 03:00:51;;;;;;;0.65;0.25;;;18.20;99.90;;;;;;5115676;28;20491;-73
2021/06/05 03:03:20;;;;;;;0.40;0.30;;;18.20;99.90;;;;;;5115575;28;20465;-73
2021/06/05 03:05:47;;;;;;;0.60;0.30;;;18.20;99.90;;;;;;5116235;28;20412;-73
2021/06/05 03:08:15;;;;;;;0.40;0.30;;;18.10;99.90;;;;;;5116585;28;20432;-73
2021/06/05 03:10:42;;;;;;;0.60;0.30;;;18.10;99.90;;;;;;5116078;28;20462;-74
2021/06/05 03:13:10;;;;;;;0.52;0.25;;;18.20;99.90;;;;;;5116564;28;20538;-73
2021/06/05 03:15:37;;;;;;;0.50;0.30;;;18.20;99.90;;;;;;5116248;28;20465;-73
2021/06/05 03:18:04;;;;;;;0.73;0.30;;;18.20;99.90;;;;;;5116144;28;20428;-73
2021/06/05 03:20:35;;;;;;;0.50;0.30;;;18.20;99.90;;;;;;5116658;28;20413;-73
2021/06/05 03:23:03;;;;;;;1.60;0.30;;;18.30;99.90;;;;;;5115841;28;20501;-73
2021/06/05 03:25:29;;;;;;;0.70;0.30;;;18.30;99.90;;;;;;5115394;28;20456;-74
2021/06/05 03:27:57;;;;;;;0.50;0.30;;;18.40;99.90;;;;;;5116007;28;20523;-73
2021/06/05 03:30:26;;;;;;;0.50;0.30;;;18.40;99.90;;;;;;5116152;28;20435;-73
2021/06/05 03:32:53;;;;;;;0.50;0.30;;;18.50;99.90;;;;;;5115544;28;20514;-73
2021/06/05 03:35:21;;;;;;;0.90;0.38;;;18.50;99.90;;;;;;5117107;28;20432;-73
2021/06/05 03:37:48;;;;;;;0.50;0.30;;;18.60;99.90;;;;;;5115976;28;20412;-74
2021/06/05 03:40:18;;;;;;;0.60;0.30;;;18.60;99.90;;;;;;5115365;28;20515;-74
2021/06/05 03:42:45;;;;;;;0.73;0.30;;;18.60;99.90;;;;;;5115879;28;20466;-74
2021/06/05 03:45:12;;;;;;;0.60;0.30;;;18.60;99.90;;;;;;5118354;28;20519;-73
2021/06/05 03:47:39;;;;;;;0.50;0.30;;;18.60;99.90;;;;;;5119866;28;20420;-73
2021/06/05 03:50:10;;;;;;;0.50;0.30;;;18.60;99.90;;;;;;5119621;28;20431;-74
2021/06/05 03:52:37;;;;;;;0.60;0.40;;;18.60;99.90;;;;;;5119806;28;20516;-73
2021/06/05 03:55:07;;;;;;;0.52;0.30;;;18.70;99.90;;;;;;5119537;28;20894;-73
2021/06/05 03:57:34;;;;;;;0.60;0.30;;;18.70;99.90;;;;;;5119561;28;20416;-73
2021/06/05 04:00:01;;;;;;;0.60;0.30;;;18.80;99.90;;;;;;5119456;28;20428;-73
2021/06/05 04:02:28;;;;;;;0.50;0.30;;;18.70;99.90;;;;;;5118764;28;20447;-73
2021/06/05 04:04:55;;;;;;;0.77;0.40;;;18.70;99.90;;;;;;5119876;28;20428;-73
2021/06/05 04:07:22;;;;;;;0.60;0.40;;;18.70;99.90;;;;;;5118896;28;20501;-73
2021/06/05 04:09:48;;;;;;;0.53;0.30;;;18.60;99.90;;;;;;5119354;28;20478;-73
2021/06/05 04:12:16;;;;;;;0.60;0.40;;;18.60;99.90;;;;;;5118989;28;20496;-73
2021/06/05 04:14:43;;;;;;;0.53;0.30;;;18.50;99.90;;;;;;5119244;28;20497;-73
2021/06/05 04:17:10;;;;;;;1.20;0.30;;;18.50;99.90;;;;;;5119350;28;20496;-74
2021/06/05 04:19:38;;;;;;;0.50;0.30;;;18.50;99.90;;;;;;5118139;28;20424;-73
2021/06/05 04:22:06;;;;;;;0.50;0.30;;;18.50;99.90;;;;;;5118061;28;20511;-73
2021/06/05 04:24:33;;;;;;;0.50;0.30;;;18.50;99.90;;;;;;5118268;28;20533;-73
2021/06/05 04:26:59;;;;;;;0.70;0.30;;;18.50;99.90;;;;;;5118756;28;20516;-73
2021/06/05 04:29:27;;;;;;;0.70;0.30;;;18.60;99.90;;;;;;5118457;28;20424;-74
2021/06/05 04:31:54;;;;;;;0.50;0.30;;;18.60;99.90;;;;;;5118852;28;20424;-73
2021/06/05 04:34:21;;;;;;;0.90;0.30;;;18.70;99.90;;;;;;5117732;28;20510;-73
2021/06/05 04:36:50;;;;;;;0.70;0.30;;;18.70;99.90;;;;;;5117179;28;20510;-73
2021/06/05 04:39:17;;;;;;;0.70;0.30;;;18.80;99.90;;;;;;5117273;28;20434;-73
2021/06/05 04:41:44;;;;;;;0.57;0.40;;;18.80;99.90;;;;;;5117595;28;20427;-73
2021/06/05 04:44:10;;;;;;;0.50;0.30;;;18.70;99.90;;;;;;5117612;28;20426;-73
2021/06/05 04:46:38;;;;;;;0.60;0.30;;;18.70;99.90;;;;;;5117513;28;20515;-73
2021/06/05 04:49:08;;;;;;;0.60;0.30;;;18.70;99.90;;;;;;5118276;28;20416;-73
2021/06/05 04:51:35;;;;;;;1.10;0.30;;;18.70;99.90;;;;;;5118278;28;20466;-73
2021/06/05 04:54:01;;;;;;;0.60;0.40;;;18.70;99.90;;;;;;5118503;28;20439;-73
2021/06/05 04:56:34;;;;;;;1.25;0.30;;;18.70;99.90;;;;;;5117142;28;20431;-72
2021/06/05 04:59:00;;;;;;;0.70;0.40;;;18.70;99.90;;;;;;5118229;28;20456;-72
2021/06/05 05:01:27;;;;;;;0.50;0.37;;;18.70;99.90;;;;;;5119374;28;20459;-72
2021/06/05 05:03:55;;;;;;;0.60;0.30;;;18.70;99.90;;;;;;5117470;28;20452;-73
2021/06/05 05:06:21;;;;;;;0.55;0.30;;;18.60;99.90;;;;;;5117787;28;20435;-73
2021/06/05 05:08:48;;;;;;;0.70;0.30;;;18.50;99.90;;;;;;5118175;28;20827;-73
2021/06/05 05:11:15;;;;;;;0.50;0.30;;;18.40;99.90;;;;;;5118947;28;20511;-74
2021/06/05 05:13:41;;;;;;;0.60;0.30;;;18.40;99.90;;;;;;5118632;28;20416;-75
2021/06/05 05:16:08;;;;;;;0.70;0.30;;;18.40;99.90;;;;;;5117892;28;20796;-74
2021/06/05 05:18:37;;;;;;;0.70;0.40;;;18.50;99.90;;;;;;5118579;28;20431;-74
2021/06/05 05:21:06;;;;;;;0.50;0.30;;;18.40;99.90;;;;;;5116705;28;20511;-73
2021/06/05 05:23:33;;;;;;;0.90;0.30;;;18.40;99.90;;;;;;5116902;28;20901;-74
2021/06/05 05:26:03;;;;;;;0.93;0.30;;;18.40;99.90;;;;;;5114729;28;20436;-74
2021/06/05 05:28:30;;;;;;;0.95;0.30;;;18.30;99.90;;;;;;5112536;28;20699;-74
2021/06/05 05:30:59;;;;;;;0.60;0.40;;;18.30;99.90;;;;;;5115577;28;20459;-76
2021/06/05 05:33:27;;;;;;;0.50;0.30;;;18.30;99.90;;;;;;5114868;28;20512;-74
2021/06/05 05:35:54;;;;;;;0.70;0.40;;;18.30;99.90;;;;;;5127059;27;20534;-74
2021/06/05 05:38:24;;;;;;;0.50;0.30;;;18.40;99.90;;;;;;5136833;27;20464;-74
2021/06/05 05:40:52;;;;;;;0.60;0.30;;;18.50;99.90;;;;;;5137406;27;20806;-74
2021/06/05 05:43:18;;;;;;;0.50;0.30;;;18.50;99.90;;;;;;5137048;27;20460;-74
2021/06/05 05:45:45;;;;;;;0.50;0.30;;;18.50;99.90;;;;;;5136886;27;20430;-74
2021/06/05 05:48:13;;;;;;;0.88;0.30;;;18.50;99.90;;;;;;5135524;27;20889;-73
2021/06/05 05:50:41;;;;;;;0.50;0.30;;;18.60;99.90;;;;;;5136244;27;20458;-73
2021/06/05 05:53:07;;;;;;;0.60;0.30;;;18.60;99.90;;;;;;5136225;27;20435;-73
2021/06/05 05:55:35;;;;;;;0.52;0.30;;;18.70;99.90;;;;;;5136908;27;20419;-74
2021/06/05 05:58:04;;;;;;;0.80;0.30;;;18.80;99.90;;;;;;5137115;27;20437;-71
2021/06/05 06:00:33;;;;;;;0.60;0.38;;;18.80;99.90;;;;;;5136837;27;20468;-72
2021/06/05 06:03:00;;;;;;;1.00;0.30;;;18.80;99.90;;;;;;5136547;27;20442;-76
2021/06/05 06:05:26;;;;;;;0.60;0.30;;;18.90;99.90;;;;;;5137244;27;20729;-73
2021/06/05 06:07:52;;;;;;;0.60;0.30;;;19.00;99.90;;;;;;5152950;27;20504;-72
2021/06/05 06:10:20;;;;;;;0.60;0.30;;;19.10;99.90;;;;;;5158084;27;20464;-75
2021/06/05 06:12:48;;;;;;;5.00;0.50;;;19.10;99.90;;;;;;5144624;27;20426;-75
2021/06/05 06:15:17;;;;;;;1.80;0.40;;;19.20;99.90;;;;;;5137698;27;20426;-75
2021/06/05 06:17:44;;;;;;;0.60;0.30;;;19.30;99.90;;;;;;5137257;27;20699;-75
2021/06/05 06:20:14;;;;;;;0.90;0.40;;;19.30;99.90;;;;;;5137881;27;20823;-76
2021/06/05 06:22:41;;;;;;;0.53;0.30;;;19.40;99.90;;;;;;5137272;27;20497;-77
2021/06/05 06:25:08;;;;;;;3.70;0.40;;;19.50;99.90;;;;;;5140231;27;20538;-77
2021/06/05 06:27:35;;;;;;;1.02;0.30;;;19.60;99.90;;;;;;5155036;27;20465;-78
2021/06/05 06:30:05;;;;;;;0.90;0.40;;;19.60;99.90;;;;;;5137011;27;20464;-79
2021/06/05 06:32:31;;;;;;;1.25;0.40;;;19.60;99.90;;;;;;5137645;27;20426;-78
2021/06/05 06:34:58;;;;;;;2.20;0.30;;;19.70;99.90;;;;;;5137986;27;20762;-78
2021/06/05 06:37:24;;;;;;;0.90;0.30;;;19.80;99.90;;;;;;5137302;27;20452;-77
2021/06/05 06:39:50;;;;;;;3.40;0.40;;;19.90;99.90;;;;;;5136596;27;20841;-74
2021/06/05 06:42:17;;;;;;;0.90;0.30;;;19.90;99.90;;;;;;5136827;27;20468;-76
2021/06/05 06:44:44;;;;;;;1.30;0.30;;;20.00;99.90;;;;;;5137268;27;20520;-80
2021/06/05 06:47:12;;;;;;;0.50;0.30;;;20.00;99.90;;;;;;5139515;27;20484;-78
2021/06/05 06:49:38;;;;;;;1.60;0.35;;;20.10;99.90;;;;;;5158903;27;20843;-77
2021/06/05 06:52:05;;;;;;;1.00;0.32;;;20.10;99.90;;;;;;5155581;27;20464;-78
2021/06/05 06:54:32;;;;;;;1.15;0.40;;;20.20;99.90;;;;;;5156463;27;20453;-77
2021/06/05 06:56:58;;;;;;;0.70;0.30;;;20.20;99.90;;;;;;5157988;27;20437;-76
2021/06/05 06:59:24;;;;;;;1.30;0.40;;;20.40;99.90;;;;;;5156444;27;20449;-76
2021/06/05 07:01:51;;;;;;;1.80;0.40;;;20.50;99.90;;;;;;5158361;27;20809;-77
2021/06/05 07:04:19;;;;;;;1.00;0.30;;;20.70;99.90;;;;;;5144209;27;20468;-79
2021/06/05 07:06:45;;;;;;;0.80;0.30;;;20.80;99.90;;;;;;5141771;27;20727;-79
2021/06/05 07:09:13;;;;;;;5.70;1.00;;;20.90;99.90;;;;;;5155230;27;20420;-78
2021/06/05 07:11:40;;;;;;;1.45;0.40;;;21.00;99.90;;;;;;5154407;27;20727;-80
2021/06/05 07:14:07;;;;;;;5.53;0.70;;;21.10;99.90;;;;;;5140955;27;20594;-79
2021/06/05 07:16:35;;;;;;;1.02;0.40;;;21.10;99.90;;;;;;5138333;28;20507;-79
2021/06/05 07:19:02;;;;;;;0.68;0.30;;;21.10;99.90;;;;;;5156871;27;20456;-80
2021/06/05 07:21:30;;;;;;;0.50;0.30;;;21.10;99.90;;;;;;5158818;27;20422;-80
2021/06/05 07:23:57;;;;;;;0.60;0.30;;;21.20;99.90;;;;;;5162546;27;20424;-80
2021/06/05 07:26:26;;;;;;;0.65;0.30;;;21.20;99.90;;;;;;5163567;27;20454;-79
2021/06/05 07:28:55;;;;;;;0.50;0.30;;;21.50;99.90;;;;;;5162597;27;20477;-79
2021/06/05 07:31:25;;;;;;;0.60;0.30;;;21.60;99.90;;;;;;5145786;27;20421;-79
2021/06/05 07:33:52;;;;;;;0.85;0.30;;;21.90;99.90;;;;;;5144415;27;20454;-80
2021/06/05 07:36:21;;;;;;;0.50;0.30;;;22.10;99.90;;;;;;5142506;27;20430;-79
2021/06/05 07:38:49;;;;;;;0.80;0.30;;;22.30;99.90;;;;;;5141352;27;20482;-78
2021/06/05 07:41:16;;;;;;;0.40;0.30;;;22.20;99.90;;;;;;5141169;27;20784;-79
2021/06/05 07:43:43;;;;;;;0.90;0.30;;;22.20;99.90;;;;;;5142328;27;20460;-79
2021/06/05 07:46:10;;;;;;;0.60;0.30;;;22.30;99.90;;;;;;5144001;27;20472;-78
2021/06/05 07:48:36;;;;;;;0.90;0.30;;;22.40;99.90;;;;;;5144358;27;20437;-79
2021/06/05 07:51:05;;;;;;;0.50;0.30;;;22.30;99.90;;;;;;5141488;27;20414;-80
2021/06/05 07:53:31;;;;;;;0.90;0.30;;;22.50;99.90;;;;;;5141684;27;20425;-78
2021/06/05 07:55:59;;;;;;;0.60;0.30;;;22.60;99.90;;;;;;5146704;27;20442;-79
2021/06/05 07:58:26;;;;;;;2.83;0.50;;;22.80;99.90;;;;;;5159256;27;20431;-78
2021/06/05 08:00:52;;;;;;;1.23;0.40;;;22.90;99.90;;;;;;5159739;27;20428;-78
2021/06/05 08:03:19;;;;;;;3.05;0.45;;;22.90;99.90;;;;;;5159208;27;20531;-78
2021/06/05 08:05:45;;;;;;;1.90;0.30;;;23.00;99.90;;;;;;5157740;27;20793;-78
2021/06/05 08:08:14;;;;;;;1.50;0.40;;;23.00;99.90;;;;;;5157511;27;20507;-76
2021/06/05 08:10:41;;;;;;;0.83;0.40;;;23.00;99.90;;;;;;5159650;27;20416;-76
2021/06/05 08:13:10;;;;;;;0.50;0.30;;;22.90;99.90;;;;;;5160121;27;20420;-75
2021/06/05 08:15:40;;;;;;;1.70;0.35;;;22.70;99.90;;;;;;5160249;27;20425;-76
2021/06/05 08:18:07;;;;;;;0.50;0.30;;;22.70;99.90;;;;;;5160226;27;20404;-75
2021/06/05 08:20:37;;;;;;;0.85;0.40;;;22.80;99.90;;;;;;5160020;27;20413;-75
2021/06/05 08:23:06;;;;;;;0.93;0.40;;;22.70;99.90;;;;;;5159046;27;20859;-75
2021/06/05 08:25:33;;;;;;;0.50;0.30;;;22.60;99.90;;;;;;5142772;27;20423;-75
2021/06/05 08:28:00;;;;;;;1.90;0.80;;;22.60;99.90;;;;;;5139255;27;20430;-75
2021/06/05 08:30:31;;;;;;;4.82;0.50;;;22.30;99.90;;;;;;5139868;27;20861;-74
2021/06/05 08:32:58;;;;;;;2.60;0.40;;;22.20;99.90;;;;;;5140070;27;20487;-74
2021/06/05 08:35:25;;;;;;;0.90;0.40;;;22.00;99.90;;;;;;5137617;27;20881;-75
2021/06/05 08:37:51;;;;;;;0.60;0.30;;;21.90;99.90;;;;;;5139664;27;20421;-74
2021/06/05 08:40:23;;;;;;;0.63;0.40;;;21.70;99.90;;;;;;5138177;27;20513;-74
2021/06/05 08:42:51;;;;;;;0.50;0.30;;;21.40;99.90;;;;;;5138347;27;20558;-74
2021/06/05 08:45:22;;;;;;;0.50;0.32;;;21.30;99.90;;;;;;5137565;27;20442;-75
2021/06/05 08:47:50;;;;;;;0.50;0.30;;;21.30;99.90;;;;;;5138118;27;20430;-75
2021/06/05 08:50:19;;;;;;;5.05;4.55;;;21.30;99.90;;;;;;5144597;27;20423;-75
2021/06/05 08:52:53;;;;;;;0.60;0.40;;;21.40;99.90;;;;;;5139434;27;20480;-74
2021/06/05 08:55:27;;;;;;;0.80;0.45;;;21.20;99.90;;;;;;5148175;27;20465;-75
2021/06/05 08:57:56;;;;;;;1.45;0.90;;;21.30;99.90;;;;;;5140833;27;20861;-75
2021/06/05 09:00:28;;;;;;;0.57;0.40;;;21.40;99.90;;;;;;5136752;27;20791;-75
2021/06/05 09:02:59;;;;;;;0.60;0.40;;;21.50;99.90;;;;;;5137419;27;20475;-76
2021/06/05 09:06:01;;;;;;;1.65;0.30;;;21.50;99.90;;;;;;5148478;27;20492;-74
2021/06/05 09:08:29;;;;;;;0.60;0.40;;;21.50;99.90;;;;;;5151052;27;20438;-74
2021/06/05 09:10:57;;;;;;;0.50;0.30;;;21.70;99.90;;;;;;5141749;27;20527;-74
2021/06/05 09:13:23;;;;;;;0.80;0.40;;;21.80;99.90;;;;;;5154260;27;20523;-74
2021/06/05 09:16:25;;;;;;;0.60;0.30;;;21.90;99.90;;;;;;5136119;27;20462;-76
2021/06/05 09:18:55;;;;;;;0.50;0.30;;;22.10;99.90;;;;;;5137324;27;20430;-75
2021/06/05 09:21:27;;;;;;;0.60;0.40;;;22.30;99.90;;;;;;5137209;27;20475;-73
2021/06/05 09:24:09;;;;;;;0.90;0.40;;;22.20;99.90;;;;;;5137037;27;20422;-73
2021/06/05 09:26:35;;;;;;;0.90;0.50;;;22.10;99.90;;;;;;5136208;27;20786;-74
2021/06/05 09:29:14;;;;;;;0.70;0.43;;;22.00;99.90;;;;;;5135856;27;20520;-74
2021/06/05 09:31:56;;;;;;;0.70;0.40;;;22.00;99.90;;;;;;5135499;27;20423;-74
2021/06/05 09:34:32;;;;;;;1.05;0.40;;;21.80;99.90;;;;;;5144065;27;20866;-74
2021/06/05 09:36:58;;;;;;;0.70;0.40;;;21.70;99.90;;;;;;5157332;27;20409;-73
2021/06/05 09:39:41;;;;;;;0.70;0.40;;;21.50;99.90;;;;;;5155645;27;20997;-75
2021/06/05 09:42:11;;;;;;;1.10;0.40;;;21.40;99.90;;;;;;5152641;27;20418;-74
2021/06/05 09:44:45;;;;;;;0.50;0.40;;;21.40;99.90;;;;;;5141160;27;20876;-76
2021/06/05 09:47:24;;;;;;;1.30;0.40;;;21.60;99.90;;;;;;5133653;27;20425;-75
2021/06/05 09:49:58;;;;;;;0.50;0.30;;;21.90;99.90;;;;;;5142381;27;20473;-76
2021/06/05 09:52:35;;;;;;;0.50;0.30;;;22.10;99.90;;;;;;5141481;27;20755;-75
2021/06/05 09:55:26;;;;;;;0.70;0.30;;;22.20;99.90;;;;;;5153766;27;20858;-71
2021/06/05 09:57:53;;;;;;;0.50;0.30;;;22.40;99.90;;;;;;5138082;27;20449;-74
2021/06/05 10:00:25;;;;;;;0.70;0.30;;;22.50;99.90;;;;;;5136851;27;20433;-74
2021/06/05 10:02:54;;;;;;;1.10;0.30;;;22.60;99.90;;;;;;5137241;27;20414;-75
2021/06/05 10:05:28;;;;;;;0.52;0.30;;;22.40;99.90;;;;;;5139501;27;20434;-74
2021/06/05 10:07:56;;;;;;;0.60;0.30;;;22.40;99.90;;;;;;5138686;27;20435;-75
2021/06/05 10:10:37;;;;;;;0.60;0.40;;;22.60;99.90;;;;;;5145494;27;20469;-73
2021/06/05 10:13:09;;;;;;;1.00;0.40;;;22.60;99.90;;;;;;5144470;27;20445;-74
2021/06/05 10:15:39;;;;;;;0.50;0.30;;;22.80;99.90;;;;;;5132162;27;20410;-73
2021/06/05 10:18:13;;;;;;;0.60;0.40;;;22.70;99.90;;;;;;5134801;27;20433;-72
2021/06/05 10:20:47;;;;;;;0.70;0.40;;;22.70;99.90;;;;;;5140027;27;20430;-74
2021/06/05 10:23:20;;;;;;;0.90;0.40;;;22.70;99.90;;;;;;5150675;27;20467;-73
2021/06/05 10:25:50;;;;;;;0.57;0.30;;;22.70;99.90;;;;;;5130370;27;20929;-73
2021/06/05 10:28:19;;;;;;;0.43;0.30;;;22.70;99.90;;;;;;5145241;27;20878;-72
2021/06/05 10:30:50;;;;;;;0.60;0.40;;;22.90;99.90;;;;;;5146345;27;20449;-76
2021/06/05 10:33:31;;;;;;;0.50;0.40;;;22.80;99.90;;;;;;5144486;27;20460;-72
2021/06/05 10:36:01;;;;;;;0.60;0.40;;;22.60;99.90;;;;;;5146506;27;20513;-77
2021/06/05 10:38:37;;;;;;;0.50;0.30;;;22.60;99.90;;;;;;5149983;27;20507;-74
2021/06/05 10:41:05;;;;;;;0.70;0.40;;;22.60;99.90;;;;;;5147887;27;20702;-76
2021/06/05 10:43:31;;;;;;;0.60;0.30;;;22.50;99.90;;;;;;5138015;27;20852;-75
2021/06/05 10:45:58;;;;;;;1.20;0.30;;;22.30;99.90;;;;;;5131463;27;20518;-76
2021/06/05 10:48:30;;;;;;;0.80;0.30;;;22.00;99.90;;;;;;5134383;27;20423;-74
2021/06/05 10:51:08;;;;;;;0.60;0.40;;;21.90;99.90;;;;;;5135029;27;21130;-74
2021/06/05 10:53:37;;;;;;;0.60;0.40;;;21.80;99.90;;;;;;5131744;27;20436;-75
2021/06/05 10:56:13;;;;;;;0.70;0.30;;;21.80;99.90;;;;;;5134000;27;20438;-77
2021/06/05 10:58:44;;;;;;;0.73;0.30;;;21.60;99.90;;;;;;5134845;27;20495;-74
2021/06/05 11:01:14;;;;;;;0.50;0.30;;;21.40;99.90;;;;;;5135297;27;20483;-74
2021/06/05 11:04:02;;;;;;;0.60;0.40;;;21.40;99.90;;;;;;5134387;27;20438;-76
2021/06/05 11:06:56;;;;;;;0.90;0.40;;;21.50;99.90;;;;;;5130019;27;20445;-74
2021/06/05 11:09:48;;;;;;;0.40;0.30;;;21.50;99.90;;;;;;5135126;27;20860;-74
2021/06/05 11:12:47;;;;;;;1.00;0.40;;;21.90;99.90;;;;;;5136019;27;20452;-76
2021/06/05 11:15:49;;;;;;;0.80;0.40;;;22.20;99.90;;;;;;5134506;27;20521;-76
2021/06/05 11:18:24;;;;;;;0.60;0.30;;;22.10;99.90;;;;;;5135604;28;20437;-76
2021/06/05 11:20:50;;;;;;;0.90;0.30;;;22.30;99.90;;;;;;5133979;27;20520;-74
2021/06/05 11:23:20;;;;;;;0.50;0.30;;;22.30;99.90;;;;;;5134010;28;20422;-76
2021/06/05 11:25:51;;;;;;;0.60;0.30;;;22.20;99.90;;;;;;5134905;28;20429;-77
2021/06/05 11:28:46;;;;;;;0.50;0.30;;;22.40;99.90;;;;;;5135110;28;20466;-76
2021/06/05 11:31:43;;;;;;;0.53;0.37;;;22.60;99.90;;;;;;5126439;28;20429;-75
2021/06/05 11:34:31;;;;;;;0.50;0.30;;;22.90;99.90;;;;;;5113929;27;20503;-75
2021/06/05 11:37:00;;;;;;;0.55;0.30;;;22.80;99.90;;;;;;5127460;28;20869;-76
2021/06/05 11:39:49;;;;;;;0.60;0.33;;;22.80;99.90;;;;;;5135144;27;20438;-78
2021/06/05 11:42:52;;;;;;;0.70;0.40;;;23.10;99.90;;;;;;5134355;28;20483;-75
2021/06/05 11:45:52;;;;;;;0.50;0.30;;;23.30;99.90;;;;;;5114133;27;20475;-75
2021/06/05 11:48:51;;;;;;;0.60;0.40;;;24.00;99.90;;;;;;5115132;28;20475;-75
2021/06/05 11:51:32;;;;;;;0.50;0.30;;;24.60;99.90;;;;;;5077631;28;20505;-74
2021/06/05 11:54:02;;;;;;;0.40;0.30;;;24.80;99.90;;;;;;5134858;28;20725;-75
2021/06/05 11:56:33;;;;;;;0.50;0.30;;;24.50;99.90;;;;;;5131992;27;20549;-75
2021/06/05 11:59:19;;;;;;;0.60;0.40;;;24.00;99.90;;;;;;5133408;28;20455;-74
2021/06/05 12:01:47;;;;;;;1.10;0.40;;;23.90;99.90;;;;;;5131869;28;20894;-75
2021/06/05 12:04:18;;;;;;;0.60;0.30;;;23.90;99.90;;;;;;5132944;28;20418;-75
2021/06/05 12:06:48;;;;;;;0.60;0.40;;;23.70;99.90;;;;;;5136724;27;20449;-75
2021/06/05 12:09:17;;;;;;;0.70;0.40;;;23.40;99.90;;;;;;5135289;27;20422;-74
2021/06/05 12:11:48;;;;;;;0.50;0.30;;;23.60;99.90;;;;;;5135437;27;20458;-75
2021/06/05 12:14:34;;;;;;;0.50;0.30;;;23.40;99.90;;;;;;5136517;27;20510;-75
2021/06/05 12:17:01;;;;;;;1.17;0.30;;;23.50;99.90;;;;;;5138096;27;20426;-76
2021/06/05 12:19:31;;;;;;;0.57;0.40;;;23.70;99.90;;;;;;5136520;27;20517;-75
2021/06/05 12:22:12;;;;;;;0.90;0.40;;;23.70;99.90;;;;;;5135675;27;20433;-74
2021/06/05 12:24:41;;;;;;;0.80;0.40;;;23.80;99.90;;;;;;5135540;27;20440;-75
2021/06/05 12:27:08;;;;;;;1.05;0.40;;;23.60;99.90;;;;;;5137924;27;20427;-74
2021/06/05 12:29:40;;;;;;;0.60;0.40;;;23.50;99.90;;;;;;5137362;27;20433;-77
2021/06/05 12:32:15;;;;;;;0.80;0.40;;;23.70;99.90;;;;;;5137219;27;20544;-74
2021/06/05 12:34:42;;;;;;;0.50;0.30;;;23.60;99.90;;;;;;5138366;27;20454;-73
2021/06/05 12:37:20;;;;;;;0.50;0.30;;;23.70;99.90;;;;;;5136932;27;20475;-73
2021/06/05 12:39:49;;;;;;;0.80;0.50;;;23.80;99.90;;;;;;5136401;27;20467;-73
2021/06/05 12:42:22;;;;;;;0.50;0.30;;;24.00;99.90;;;;;;5137661;27;20434;-76
2021/06/05 12:44:54;;;;;;;1.50;0.30;;;24.10;99.90;;;;;;5138338;27;20629;-75
2021/06/05 12:47:26;;;;;;;0.50;0.30;;;24.20;99.90;;;;;;5136835;27;20462;-75
2021/06/05 12:49:53;;;;;;;1.00;0.30;;;24.40;99.90;;;;;;5138125;27;20902;-74
2021/06/05 12:52:27;;;;;;;0.40;0.30;;;24.80;99.90;;;;;;5138528;27;20832;-76
2021/06/05 12:55:11;;;;;;;0.52;0.30;;;24.80;99.90;;;;;;5137113;27;20434;-74
2021/06/05 12:57:40;;;;;;;0.50;0.30;;;25.10;99.90;;;;;;5137185;27;20509;-76
2021/06/05 13:00:35;;;;;;;0.40;0.20;;;25.00;99.90;;;;;;5135922;27;20528;-75
2021/06/05 13:03:24;;;;;;;0.50;0.30;;;25.60;99.90;;;;;;5137360;27;20457;-75
2021/06/05 13:06:08;;;;;;;0.40;0.20;;;25.60;99.90;;;;;;5136358;27;20749;-76